Time;durP1;ratioP1;P1;durP2;ratioP2;P2;SDS_P1;SDS_P2;PMS_P1;PMS_P2;Temp;Humidity;BMP_temperature;BMP_pressure;BME280_temperature;BME280_humidity;BME280_pressure;Samples;Min_cycle;Max_cycle;Signal;HPM_P1;HPM_P2
2023/05/11 06:31:12;;;;;;;18.55;3.13;;;13.70;99.90;;;;;;6986137;23;20055;-78
2023/05/11 06:34:14;;;;;;;8.07;1.95;;;13.70;99.90;;;;;;6171256;28;20043;-79
2023/05/11 06:37:19;;;;;;;5.22;1.30;;;13.70;99.90;;;;;;6176954;28;20404;-78
2023/05/11 06:40:21;;;;;;;2.95;1.10;;;13.80;99.90;;;;;;6177618;28;20481;-79
2023/05/11 06:43:23;;;;;;;2.55;1.00;;;13.80;99.90;;;;;;6177151;28;20051;-80
2023/05/11 06:46:26;;;;;;;7.07;1.20;;;13.70;99.90;;;;;;6177025;28;20057;-78
2023/05/11 06:49:28;;;;;;;3.75;1.42;;;13.80;99.90;;;;;;6177067;28;20420;-78
2023/05/11 06:52:30;;;;;;;2.72;1.17;;;13.80;99.90;;;;;;6176896;28;20046;-79
2023/05/11 06:55:32;;;;;;;3.38;1.20;;;13.80;99.90;;;;;;6177304;28;20066;-77
2023/05/11 06:58:34;;;;;;;5.05;1.20;;;13.80;99.90;;;;;;6176341;28;20046;-81
2023/05/11 07:01:37;;;;;;;3.13;1.10;;;13.90;99.90;;;;;;6176968;28;20042;-76
2023/05/11 07:04:39;;;;;;;2.45;1.08;;;13.90;99.90;;;;;;6177193;28;20404;-79
2023/05/11 07:07:41;;;;;;;2.85;1.10;;;13.80;99.90;;;;;;6177373;28;20058;-79
2023/05/11 07:10:43;;;;;;;3.47;1.10;;;13.90;99.90;;;;;;6177297;28;20094;-79
2023/05/11 07:13:45;;;;;;;5.03;1.10;;;13.90;99.90;;;;;;6177190;28;20050;-78
2023/05/11 07:16:51;;;;;;;3.17;1.27;;;14.00;99.90;;;;;;6166546;28;20050;-79
2023/05/11 07:19:54;;;;;;;4.88;1.23;;;13.90;99.90;;;;;;6152841;29;20062;-79
2023/05/11 07:22:59;;;;;;;4.00;1.20;;;14.00;99.90;;;;;;6152965;29;20417;-78
2023/05/11 07:26:03;;;;;;;3.00;1.10;;;14.00;99.90;;;;;;6174725;28;20055;-79
2023/05/11 07:29:04;;;;;;;;;;;14.00;99.90;;;;;;6177271;28;20146;-79
2023/05/11 07:32:07;;;;;;;2.70;1.08;;;14.10;99.90;;;;;;6177222;28;20016;-80
2023/05/11 07:35:10;;;;;;;2.70;1.00;;;14.10;99.90;;;;;;6177193;28;20050;-78
2023/05/11 07:38:12;;;;;;;5.20;1.23;;;14.20;99.90;;;;;;6176960;28;20047;-79
2023/05/11 07:41:14;;;;;;;2.58;1.00;;;14.10;99.90;;;;;;6176836;28;20492;-79
2023/05/11 07:44:16;;;;;;;3.13;1.17;;;14.10;99.90;;;;;;6176771;28;20404;-79
2023/05/11 07:47:20;;;;;;;2.67;1.17;;;14.20;99.90;;;;;;6175904;28;20055;-76
2023/05/11 07:50:22;;;;;;;;;;;14.20;99.90;;;;;;6169100;28;20079;-78
2023/05/11 07:53:24;;;;;;;2.72;1.00;;;14.20;99.90;;;;;;6152333;29;20380;-79
2023/05/11 07:56:25;;;;;;;3.30;1.23;;;14.30;99.90;;;;;;6152279;29;20485;-78
2023/05/11 07:59:27;;;;;;;3.05;1.20;;;14.40;99.90;;;;;;6152834;29;20154;-78
2023/05/11 08:02:30;;;;;;;2.67;1.10;;;14.40;99.90;;;;;;6161184;28;20047;-80
2023/05/11 08:05:36;;;;;;;3.67;1.20;;;14.50;99.90;;;;;;6177206;28;20062;-79
2023/05/11 08:08:38;;;;;;;3.70;1.33;;;14.50;99.90;;;;;;6176721;28;20483;-78
2023/05/11 08:11:39;;;;;;;3.90;1.25;;;14.50;99.90;;;;;;6180959;28;20058;-77
2023/05/11 08:14:42;;;;;;;5.63;1.60;;;14.50;99.90;;;;;;6181150;28;20150;-77
2023/05/11 08:17:45;;;;;;;2.13;1.20;;;14.60;99.90;;;;;;6179607;28;20500;-77
2023/05/11 08:20:47;;;;;;;3.75;1.10;;;14.60;99.90;;;;;;6179629;28;20051;-75
2023/05/11 08:23:49;;;;;;;3.08;1.10;;;14.60;99.90;;;;;;6180659;28;20047;-76
2023/05/11 08:26:51;;;;;;;4.13;1.23;;;14.60;99.90;;;;;;6180499;28;20408;-77
2023/05/11 08:29:55;;;;;;;3.10;1.40;;;14.50;99.90;;;;;;6179634;28;20505;-76
2023/05/11 08:32:58;;;;;;;;;;;14.50;99.90;;;;;;6180676;28;20061;-77
2023/05/11 08:35:59;;;;;;;;;;;14.40;99.90;;;;;;6180885;28;19929;-74
2023/05/11 08:39:01;;;;;;;3.65;1.20;;;14.40;99.90;;;;;;6179013;28;19922;-77
2023/05/11 08:42:05;;;;;;;3.25;1.20;;;14.40;99.90;;;;;;6179608;28;20054;-76
2023/05/11 08:45:09;;;;;;;3.17;1.13;;;14.40;99.90;;;;;;6179363;28;20050;-74
2023/05/11 08:48:14;;;;;;;4.35;1.20;;;14.30;99.90;;;;;;6180280;28;20053;-74
2023/05/11 08:51:16;;;;;;;2.50;0.90;;;14.20;99.90;;;;;;6183010;28;20063;-77
2023/05/11 08:54:18;;;;;;;5.63;1.10;;;14.30;99.90;;;;;;6180865;28;20054;-75
2023/05/11 08:57:20;;;;;;;4.03;1.02;;;14.20;99.90;;;;;;6179239;28;20043;-77
2023/05/11 09:00:23;;;;;;;2.40;0.80;;;14.10;99.90;;;;;;6179558;28;20046;-75
2023/05/11 09:03:29;;;;;;;3.78;0.95;;;14.10;99.90;;;;;;6179284;28;20372;-76
2023/05/11 09:06:32;;;;;;;3.20;1.17;;;14.20;99.90;;;;;;6179312;28;20050;-73
2023/05/11 09:09:34;;;;;;;4.50;1.60;;;14.20;99.90;;;;;;6179399;28;20047;-75
2023/05/11 09:12:36;;;;;;;5.60;2.00;;;14.30;99.90;;;;;;6179792;28;20054;-75
2023/05/11 09:15:38;;;;;;;4.55;1.58;;;14.20;99.90;;;;;;6180348;28;20151;-74
2023/05/11 09:18:48;;;;;;;3.45;1.33;;;14.30;99.90;;;;;;6178967;28;20073;-75
2023/05/11 09:21:52;;;;;;;2.70;1.10;;;14.40;99.90;;;;;;6178862;28;20050;-75
2023/05/11 09:24:54;;;;;;;2.83;1.10;;;14.50;99.90;;;;;;6178641;28;20047;-76
2023/05/11 09:27:59;;;;;;;3.00;1.20;;;14.50;99.90;;;;;;6179154;28;20043;-76
2023/05/11 09:31:01;;;;;;;3.67;1.30;;;14.40;99.90;;;;;;6178335;28;20504;-76
2023/05/11 09:34:13;;;;;;;2.88;1.10;;;14.60;99.90;;;;;;6177212;28;20050;-77
2023/05/11 09:37:19;;;;;;;1.55;0.82;;;14.70;99.90;;;;;;6189294;28;20050;-74
2023/05/11 09:40:21;;;;;;;2.15;0.90;;;14.60;99.90;;;;;;6174028;28;20054;-75
2023/05/11 09:43:25;;;;;;;2.90;1.00;;;14.60;99.90;;;;;;6192114;28;20057;-76
2023/05/11 09:46:27;;;;;;;3.55;0.90;;;14.70;99.90;;;;;;6187354;28;20051;-74
2023/05/11 09:49:32;;;;;;;3.35;0.80;;;14.70;99.90;;;;;;6179883;28;20059;-74
2023/05/11 09:52:33;;;;;;;2.95;1.10;;;14.80;99.90;;;;;;6179699;28;20043;-75
2023/05/11 09:55:35;;;;;;;3.85;1.00;;;14.80;99.90;;;;;;6180141;28;20408;-74
2023/05/11 09:58:53;;;;;;;2.42;1.00;;;14.80;99.90;;;;;;6189864;28;20416;-75
2023/05/11 10:01:55;;;;;;;3.50;1.15;;;14.80;99.90;;;;;;6193545;28;20057;-77
2023/05/11 10:05:00;;;;;;;3.38;1.30;;;14.90;99.90;;;;;;6193956;28;20051;-76
2023/05/11 10:08:03;;;;;;;2.20;1.02;;;15.00;99.90;;;;;;6192420;28;20057;-75
2023/05/11 10:11:07;;;;;;;;;;;15.00;99.90;;;;;;6195424;28;20051;-76
2023/05/11 10:14:10;;;;;;;3.17;1.20;;;15.00;99.90;;;;;;6182759;28;19926;-76
2023/05/11 10:17:14;;;;;;;3.03;1.20;;;15.00;99.90;;;;;;6175000;28;20054;-75
2023/05/11 10:20:21;;;;;;;2.47;1.00;;;15.00;99.90;;;;;;6176822;28;20400;-75
2023/05/11 10:23:23;;;;;;;2.50;1.00;;;15.10;99.90;;;;;;6176955;28;20046;-74
2023/05/11 10:26:26;;;;;;;1.88;0.80;;;15.10;99.90;;;;;;6177026;28;20059;-80
2023/05/11 10:29:29;;;;;;;2.70;0.80;;;15.10;99.90;;;;;;6176919;28;20039;-79
2023/05/11 10:32:36;;;;;;;2.75;0.70;;;15.10;99.90;;;;;;6176334;28;20059;-80
2023/05/11 10:35:39;;;;;;;3.17;0.82;;;15.10;99.90;;;;;;6176991;28;20074;-79
2023/05/11 10:38:41;;;;;;;;;;;15.10;99.90;;;;;;6174965;28;20061;-78
2023/05/11 10:41:55;;;;;;;3.97;1.10;;;15.00;99.90;;;;;;6177130;28;19929;-76
2023/05/11 10:45:17;;;;;;;2.08;1.00;;;15.10;99.90;;;;;;6176994;28;20426;-79
2023/05/11 10:48:56;;;;;;;2.67;1.00;;;15.10;99.90;;;;;;6178010;28;20055;-78
2023/05/11 10:52:22;;;;;;;2.72;1.00;;;15.00;99.90;;;;;;6179727;28;20051;-77
2023/05/11 10:55:44;;;;;;;2.50;1.10;;;14.90;99.90;;;;;;6170137;28;20047;-79
2023/05/11 10:59:16;;;;;;;2.80;1.20;;;14.90;99.90;;;;;;6154224;29;20043;-79
2023/05/11 11:02:18;;;;;;;2.78;1.05;;;14.80;99.90;;;;;;6153261;29;20070;-79
2023/05/11 11:05:33;;;;;;;4.07;1.27;;;14.80;99.90;;;;;;6153015;29;20070;-79
2023/05/11 11:08:58;;;;;;;2.97;1.30;;;14.90;99.90;;;;;;6152904;29;20053;-79
2023/05/11 11:12:09;;;;;;;2.65;1.10;;;14.90;99.90;;;;;;6153260;29;20051;-77
2023/05/11 11:15:11;;;;;;;2.00;0.90;;;15.10;99.90;;;;;;6153305;29;20485;-78
2023/05/11 11:18:21;;;;;;;3.25;1.17;;;15.00;99.90;;;;;;6152469;29;20044;-80
2023/05/11 11:21:42;;;;;;;2.47;1.10;;;15.20;99.90;;;;;;6154321;28;20050;-80
2023/05/11 11:24:47;;;;;;;2.35;1.00;;;15.30;99.90;;;;;;6176729;28;20043;-80
2023/05/11 11:27:57;;;;;;;2.60;1.10;;;15.40;99.90;;;;;;6177082;28;20055;-77
2023/05/11 11:31:24;;;;;;;4.65;1.00;;;15.40;99.90;;;;;;6176210;28;20051;-79
2023/05/11 11:34:37;;;;;;;4.28;1.30;;;15.40;99.90;;;;;;6176593;28;20047;-78
2023/05/11 11:38:00;;;;;;;2.67;1.10;;;15.30;99.90;;;;;;6176928;28;20181;-78
2023/05/11 11:41:08;;;;;;;;;;;15.30;99.90;;;;;;6176873;28;20288;-79
2023/05/11 11:44:21;;;;;;;3.13;1.08;;;15.30;99.90;;;;;;6177236;28;20398;-79
2023/05/11 11:47:24;;;;;;;4.18;1.23;;;15.30;99.90;;;;;;6181730;28;20062;-79
2023/05/11 11:50:28;;;;;;;3.88;1.35;;;15.30;99.90;;;;;;6181411;28;20054;-79
2023/05/11 11:53:58;;;;;;;5.53;1.80;;;15.40;99.90;;;;;;6177782;28;20496;-79
2023/05/11 11:57:01;;;;;;;5.53;1.75;;;15.40;99.90;;;;;;6156968;29;20047;-80
2023/05/11 12:00:09;;;;;;;3.40;1.88;;;15.50;99.90;;;;;;6157126;29;20058;-79
2023/05/11 12:03:11;;;;;;;5.65;2.30;;;15.50;99.90;;;;;;6156956;28;20051;-80
2023/05/11 12:06:15;;;;;;;4.93;2.50;;;15.30;99.90;;;;;;6156698;29;20055;-82
2023/05/11 12:09:18;;;;;;;4.47;2.30;;;15.30;99.90;;;;;;6167822;28;20055;-81
2023/05/11 12:12:22;;;;;;;4.45;2.33;;;15.30;99.90;;;;;;6171013;28;20059;-79
2023/05/11 12:15:25;;;;;;;4.28;2.42;;;15.20;99.90;;;;;;6139394;29;20495;-80
2023/05/11 12:18:27;;;;;;;;;;;15.30;99.90;;;;;;6174621;28;20051;-78
2023/05/11 12:21:31;;;;;;;4.68;2.20;;;15.30;99.90;;;;;;6180604;28;19929;-82
2023/05/11 12:24:33;;;;;;;4.10;2.60;;;15.30;99.90;;;;;;6182406;28;20105;-79
2023/05/11 12:27:46;;;;;;;4.13;2.30;;;15.30;99.90;;;;;;6185285;28;20058;-81
2023/05/11 12:30:55;;;;;;;4.63;2.45;;;15.40;99.90;;;;;;6187034;28;20511;-79
2023/05/11 12:33:57;;;;;;;5.22;3.00;;;15.40;99.90;;;;;;6184789;28;20050;-79
2023/05/11 12:37:00;;;;;;;5.35;2.53;;;15.10;99.90;;;;;;6182544;28;20055;-79
2023/05/11 12:40:02;;;;;;;5.80;2.75;;;15.10;99.90;;;;;;6182259;28;20547;-79
2023/05/11 12:43:05;;;;;;;4.65;2.72;;;15.20;99.90;;;;;;6178852;28;20054;-78
2023/05/11 12:46:07;;;;;;;4.65;2.80;;;15.40;99.90;;;;;;6176906;28;20054;-77
2023/05/11 12:49:12;;;;;;;4.60;2.40;;;14.90;99.90;;;;;;6177493;28;20058;-79
2023/05/11 12:52:14;;;;;;;6.82;2.72;;;15.30;99.90;;;;;;6176145;28;20055;-78
2023/05/11 12:55:27;;;;;;;4.30;1.90;;;15.10;99.90;;;;;;6175010;28;20129;-79
2023/05/11 12:58:38;;;;;;;5.10;2.47;;;15.50;99.90;;;;;;6177246;28;20054;-78
2023/05/11 13:01:40;;;;;;;3.40;1.75;;;15.20;99.90;;;;;;6175623;28;20055;-79
2023/05/11 13:04:43;;;;;;;5.78;3.22;;;15.60;99.90;;;;;;6175712;28;20050;-77
2023/05/11 13:07:45;;;;;;;4.18;2.00;;;15.70;99.90;;;;;;6175179;28;20507;-76
2023/05/11 13:10:47;;;;;;;4.07;1.95;;;15.80;99.90;;;;;;6175102;28;20046;-80
2023/05/11 13:13:51;;;;;;;3.60;1.85;;;15.90;99.90;;;;;;6174937;28;20062;-78
2023/05/11 13:16:54;;;;;;;3.40;1.58;;;15.90;99.90;;;;;;6174432;28;20058;-80
2023/05/11 13:19:55;;;;;;;4.00;2.20;;;16.00;99.90;;;;;;6174859;28;20054;-80
2023/05/11 13:23:06;;;;;;;4.85;2.38;;;15.60;99.90;;;;;;6175040;28;20057;-80
2023/05/11 13:26:08;;;;;;;4.78;1.92;;;15.30;99.90;;;;;;6175648;28;20055;-80
2023/05/11 13:29:11;;;;;;;3.50;1.92;;;15.70;99.90;;;;;;6170522;28;20059;-80
2023/05/11 13:32:13;;;;;;;2.88;1.40;;;15.70;99.90;;;;;;6151050;29;20055;-81
2023/05/11 13:35:16;;;;;;;2.30;1.00;;;15.90;99.90;;;;;;6150990;29;20058;-79
2023/05/11 13:38:18;;;;;;;2.50;1.20;;;16.10;99.90;;;;;;6150848;29;20055;-80
2023/05/11 13:41:19;;;;;;;2.92;1.23;;;16.20;99.90;;;;;;6149173;29;20051;-79
2023/05/11 13:44:23;;;;;;;3.22;1.40;;;16.20;99.90;;;;;;6151018;28;20405;-79
2023/05/11 13:47:24;;;;;;;3.08;1.25;;;15.80;99.90;;;;;;6150728;29;20051;-79
2023/05/11 13:50:27;;;;;;;2.72;1.27;;;16.10;99.80;;;;;;6150265;29;20560;-79
2023/05/11 13:53:29;;;;;;;3.08;1.30;;;16.30;99.90;;;;;;6169994;28;20057;-78
2023/05/11 13:56:31;;;;;;;3.05;1.30;;;16.10;99.90;;;;;;6174108;28;20129;-79
2023/05/11 13:59:35;;;;;;;2.57;1.10;;;15.90;99.90;;;;;;6174938;28;20066;-79
2023/05/11 14:02:37;;;;;;;2.90;1.20;;;16.30;99.50;;;;;;6174474;28;20306;-79
2023/05/11 14:05:38;;;;;;;3.38;1.20;;;16.30;99.30;;;;;;6175651;28;20065;-80
2023/05/11 14:08:40;;;;;;;2.72;1.15;;;16.50;99.90;;;;;;6176573;28;20050;-79
2023/05/11 14:11:42;;;;;;;3.53;1.30;;;16.40;99.90;;;;;;6176411;28;20492;-80
2023/05/11 14:14:46;;;;;;;3.60;1.40;;;16.50;98.80;;;;;;6177842;28;20051;-79
2023/05/11 14:17:48;;;;;;;2.80;1.30;;;16.60;99.00;;;;;;6174969;28;20051;-80
2023/05/11 14:20:50;;;;;;;2.40;1.20;;;16.70;98.50;;;;;;6173553;28;20174;-80
2023/05/11 14:23:52;;;;;;;3.08;1.45;;;16.80;97.30;;;;;;6173650;28;20408;-81
2023/05/11 14:26:54;;;;;;;3.63;1.30;;;16.90;96.70;;;;;;6173105;28;20050;-80
2023/05/11 14:29:57;;;;;;;2.30;1.20;;;16.90;97.10;;;;;;6173372;28;20668;-78
2023/05/11 14:32:59;;;;;;;3.30;1.40;;;16.20;99.70;;;;;;6173395;28;20063;-79
2023/05/11 14:36:02;;;;;;;5.20;1.60;;;16.60;98.50;;;;;;6162842;28;20058;-80
2023/05/11 14:39:04;;;;;;;3.80;1.38;;;16.90;97.10;;;;;;6149800;29;20191;-80
2023/05/11 14:42:07;;;;;;;4.05;1.30;;;16.80;98.10;;;;;;6147167;28;20485;-79
2023/05/11 14:45:11;;;;;;;2.50;1.17;;;16.70;98.80;;;;;;6155418;28;20055;-81
2023/05/11 14:48:13;;;;;;;3.70;1.30;;;17.00;97.70;;;;;;6173227;28;20055;-78
2023/05/11 14:51:15;;;;;;;3.17;1.20;;;16.60;98.70;;;;;;6173102;28;20464;-79
2023/05/11 14:54:17;;;;;;;2.30;1.00;;;17.00;98.80;;;;;;6171398;28;20070;-80
2023/05/11 14:57:19;;;;;;;2.72;1.20;;;17.60;97.00;;;;;;6161171;28;20061;-78
2023/05/11 15:00:22;;;;;;;3.47;1.20;;;18.00;96.30;;;;;;6172383;28;20047;-79
2023/05/11 15:03:24;;;;;;;;;;;18.20;95.70;;;;;;6173243;28;20066;-80
2023/05/11 15:06:26;;;;;;;2.35;1.10;;;18.20;94.70;;;;;;6172503;28;19926;-78
2023/05/11 15:09:28;;;;;;;2.85;1.38;;;18.20;94.80;;;;;;6172406;28;20093;-78
2023/05/11 15:12:30;;;;;;;2.00;1.00;;;18.20;93.80;;;;;;6171403;28;20374;-79
2023/05/11 15:15:33;;;;;;;4.03;1.35;;;18.20;93.80;;;;;;6172689;28;20050;-77
2023/05/11 15:18:35;;;;;;;4.18;0.90;;;18.30;93.60;;;;;;6171752;28;20054;-80
2023/05/11 15:21:37;;;;;;;3.33;1.08;;;18.50;94.30;;;;;;6172219;28;20050;-79
2023/05/11 15:24:40;;;;;;;3.15;1.00;;;18.00;92.90;;;;;;6171452;28;20390;-79
2023/05/11 15:27:41;;;;;;;2.22;0.70;;;18.00;93.10;;;;;;6172955;28;20055;-77
2023/05/11 15:30:45;;;;;;;1.65;0.60;;;18.10;92.00;;;;;;6173288;28;20077;-78
2023/05/11 15:33:47;;;;;;;1.90;0.70;;;18.10;93.10;;;;;;6177662;28;20314;-79
2023/05/11 15:36:48;;;;;;;1.75;0.70;;;17.90;92.80;;;;;;6176580;28;20070;-78
2023/05/11 15:39:50;;;;;;;2.05;0.77;;;17.40;94.40;;;;;;6175108;28;20552;-76
2023/05/11 15:42:52;;;;;;;3.45;0.90;;;17.70;93.70;;;;;;6170810;28;20047;-78
2023/05/11 15:45:55;;;;;;;2.40;0.77;;;17.80;94.30;;;;;;6172163;28;20057;-78
2023/05/11 15:48:57;;;;;;;2.05;0.80;;;18.00;93.70;;;;;;6171808;28;20054;-80
2023/05/11 15:51:59;;;;;;;3.70;0.88;;;18.30;93.80;;;;;;6170883;28;20043;-78
2023/05/11 15:55:01;;;;;;;2.33;0.80;;;18.50;93.80;;;;;;6171826;28;20055;-79
2023/05/11 15:58:06;;;;;;;2.15;0.80;;;18.60;92.20;;;;;;6171256;28;20050;-77
2023/05/11 16:01:10;;;;;;;2.33;0.90;;;18.80;91.60;;;;;;6171913;28;20491;-80
2023/05/11 16:04:12;;;;;;;2.13;0.80;;;18.20;93.30;;;;;;6171568;28;20047;-77
2023/05/11 16:07:13;;;;;;;2.17;0.70;;;17.70;93.70;;;;;;6171667;28;20051;-79
2023/05/11 16:10:15;;;;;;;2.67;0.80;;;18.00;92.80;;;;;;6171982;28;20057;-79
2023/05/11 16:13:17;;;;;;;3.58;0.90;;;18.20;91.80;;;;;;6171925;28;20062;-76
2023/05/11 16:16:20;;;;;;;1.60;0.70;;;18.20;91.90;;;;;;6171125;28;20051;-79
2023/05/11 16:19:22;;;;;;;4.28;1.02;;;18.10;92.30;;;;;;6171307;28;20055;-79
2023/05/11 16:22:24;;;;;;;2.63;1.13;;;18.00;93.90;;;;;;6171407;28;20051;-79
2023/05/11 16:25:26;;;;;;;2.45;1.10;;;17.10;95.50;;;;;;6171555;28;20125;-78
2023/05/11 16:28:28;;;;;;;2.72;1.00;;;17.10;95.20;;;;;;6160307;28;20055;-79
2023/05/11 16:31:31;;;;;;;1.75;0.65;;;17.00;95.40;;;;;;6165828;28;20397;-79
2023/05/11 16:34:34;;;;;;;3.25;0.95;;;17.20;93.90;;;;;;6172533;28;20106;-80
2023/05/11 16:37:36;;;;;;;2.63;1.00;;;17.20;93.40;;;;;;6169932;28;20050;-78
2023/05/11 16:40:38;;;;;;;2.05;0.90;;;17.10;93.80;;;;;;6168674;28;20050;-77
2023/05/11 16:43:40;;;;;;;2.47;0.90;;;16.60;95.40;;;;;;6173003;28;20055;-78
2023/05/11 16:46:43;;;;;;;3.97;1.10;;;16.70;95.80;;;;;;6173963;28;20049;-78
2023/05/11 16:49:45;;;;;;;2.00;0.95;;;16.90;96.50;;;;;;6172931;28;20066;-77
2023/05/11 16:52:47;;;;;;;3.95;1.20;;;16.90;97.40;;;;;;6162563;28;20331;-78
2023/05/11 16:55:50;;;;;;;4.30;2.03;;;16.30;98.70;;;;;;6163525;28;20421;-77
2023/05/11 16:58:52;;;;;;;3.67;1.70;;;16.40;99.20;;;;;;6172510;28;20054;-77
2023/05/11 17:01:56;;;;;;;3.53;1.40;;;16.00;99.90;;;;;;6161981;28;20062;-79
2023/05/11 17:04:57;;;;;;;5.13;1.38;;;15.80;99.90;;;;;;6166837;28;20061;-79
2023/05/11 17:07:59;;;;;;;3.35;1.02;;;15.60;99.90;;;;;;6168583;28;20055;-77
2023/05/11 17:11:02;;;;;;;2.90;1.20;;;15.90;99.90;;;;;;6183062;28;20051;-78
2023/05/11 17:14:04;;;;;;;2.53;1.30;;;15.70;99.90;;;;;;6179793;28;20043;-78
2023/05/11 17:17:07;;;;;;;3.88;1.30;;;15.90;99.90;;;;;;6167722;28;20059;-76
2023/05/11 17:20:10;;;;;;;2.65;1.20;;;15.90;99.90;;;;;;6176494;28;20405;-76
2023/05/11 17:23:12;;;;;;;2.83;1.27;;;16.00;99.90;;;;;;6171307;28;20047;-77
2023/05/11 17:26:14;;;;;;;3.13;1.40;;;16.00;99.90;;;;;;6166241;28;20059;-75
2023/05/11 17:29:16;;;;;;;2.55;1.20;;;15.90;99.90;;;;;;6150511;29;20136;-76
2023/05/11 17:32:19;;;;;;;2.80;1.15;;;15.80;99.90;;;;;;6160962;28;20055;-78
2023/05/11 17:35:21;;;;;;;3.65;1.38;;;15.80;99.90;;;;;;6174442;28;21365;-77
2023/05/11 17:38:23;;;;;;;2.35;1.20;;;15.70;99.90;;;;;;6175617;28;20053;-77
2023/05/11 17:41:25;;;;;;;3.88;1.30;;;15.60;99.90;;;;;;6191310;28;20053;-77
2023/05/11 17:44:27;;;;;;;3.60;1.27;;;15.60;99.90;;;;;;6175032;28;20055;-77
2023/05/11 17:47:31;;;;;;;3.58;1.23;;;15.50;99.90;;;;;;6173916;28;20054;-77
2023/05/11 17:50:35;;;;;;;3.72;1.15;;;15.30;99.90;;;;;;6181325;28;20058;-77
2023/05/11 17:53:37;;;;;;;4.13;1.40;;;15.10;99.90;;;;;;6167988;28;20050;-77
2023/05/11 17:56:40;;;;;;;4.47;1.80;;;15.20;99.90;;;;;;6173162;28;20054;-78
2023/05/11 17:59:42;;;;;;;2.92;1.30;;;15.10;99.90;;;;;;6171632;28;20128;-78
2023/05/11 18:02:48;;;;;;;3.10;1.50;;;14.80;99.90;;;;;;6172805;28;20070;-79
2023/05/11 18:05:50;;;;;;;3.03;1.50;;;14.80;99.90;;;;;;6172307;28;20049;-79
2023/05/11 18:08:52;;;;;;;4.28;1.85;;;14.60;99.90;;;;;;6173673;28;20051;-79
2023/05/11 18:11:56;;;;;;;3.47;1.70;;;14.70;99.90;;;;;;6172777;28;20050;-79
2023/05/11 18:14:58;;;;;;;3.28;1.60;;;14.40;99.90;;;;;;6173532;28;20059;-80
2023/05/11 18:18:02;;;;;;;6.40;1.92;;;14.10;99.90;;;;;;6172241;28;20411;-78
2023/05/11 18:21:09;;;;;;;5.45;1.60;;;14.50;99.90;;;;;;6165461;28;20051;-77
2023/05/11 18:24:13;;;;;;;2.92;1.55;;;14.70;99.90;;;;;;6173789;28;20054;-77
2023/05/11 18:27:15;;;;;;;3.42;1.55;;;14.80;99.90;;;;;;6173881;28;20481;-76
2023/05/11 18:30:17;;;;;;;3.72;1.67;;;14.90;99.90;;;;;;6174560;28;20055;-78
2023/05/11 18:33:20;;;;;;;3.58;1.63;;;14.90;99.90;;;;;;6172336;28;20416;-81
2023/05/11 18:36:22;;;;;;;3.88;1.98;;;14.90;99.90;;;;;;6173199;28;20496;-78
2023/05/11 18:39:24;;;;;;;5.72;2.50;;;14.20;99.90;;;;;;6170650;28;20098;-79
2023/05/11 18:42:26;;;;;;;4.18;1.90;;;14.00;99.90;;;;;;6171567;28;20484;-80
2023/05/11 18:45:29;;;;;;;3.30;1.58;;;14.00;99.90;;;;;;6171804;28;20097;-76
2023/05/11 18:48:32;;;;;;;6.85;2.28;;;14.30;99.90;;;;;;6172848;28;20054;-78
2023/05/11 18:51:34;;;;;;;4.03;2.00;;;14.20;99.90;;;;;;6173511;28;20046;-76
2023/05/11 18:54:36;;;;;;;5.70;2.00;;;14.10;99.90;;;;;;6181467;28;20054;-76
2023/05/11 18:57:38;;;;;;;4.07;2.05;;;14.20;99.90;;;;;;6182037;28;20114;-79
2023/05/11 19:00:40;;;;;;;4.35;1.60;;;14.30;99.90;;;;;;6186587;28;20050;-77
2023/05/11 19:03:43;;;;;;;3.20;2.03;;;14.40;99.90;;;;;;6180515;28;20047;-77
2023/05/11 19:06:45;;;;;;;3.58;1.95;;;14.20;99.90;;;;;;6168391;28;20074;-77
2023/05/11 19:09:47;;;;;;;4.18;2.13;;;14.10;99.90;;;;;;6166861;28;20055;-78
2023/05/11 19:12:50;;;;;;;4.93;2.55;;;14.30;99.90;;;;;;6172875;28;20057;-81
2023/05/11 19:15:52;;;;;;;3.47;2.03;;;14.40;99.90;;;;;;6182226;28;20055;-76
2023/05/11 19:18:55;;;;;;;4.05;2.25;;;14.40;99.90;;;;;;6181023;28;20062;-77
2023/05/11 19:21:58;;;;;;;3.28;2.00;;;14.30;99.90;;;;;;6184907;28;20062;-77
2023/05/11 19:25:00;;;;;;;2.90;1.90;;;14.40;99.90;;;;;;6188927;28;20078;-78
2023/05/11 19:28:02;;;;;;;3.80;2.03;;;14.40;99.90;;;;;;6176926;28;20055;-81
2023/05/11 19:31:06;;;;;;;3.85;2.10;;;14.40;99.90;;;;;;6167848;28;20058;-76
2023/05/11 19:34:09;;;;;;;;;;;14.40;99.90;;;;;;6172523;28;20054;-78
2023/05/11 19:37:11;;;;;;;;;;;14.40;99.90;;;;;;6173669;28;20397;-79
2023/05/11 19:40:15;;;;;;;4.78;2.50;;;14.30;99.90;;;;;;6170216;28;20797;-80
2023/05/11 19:43:17;;;;;;;4.07;2.40;;;14.30;99.90;;;;;;6170827;28;20059;-79
2023/05/11 19:46:20;;;;;;;4.18;2.75;;;14.20;99.90;;;;;;6162226;28;20062;-80
2023/05/11 19:49:24;;;;;;;5.85;2.80;;;14.30;99.90;;;;;;6171159;28;20088;-80
2023/05/11 19:52:26;;;;;;;4.47;2.65;;;14.20;99.90;;;;;;6173293;28;20452;-80
2023/05/11 19:55:28;;;;;;;4.28;2.88;;;13.90;99.90;;;;;;6168611;28;20057;-78
2023/05/11 19:58:31;;;;;;;6.38;3.28;;;14.00;99.90;;;;;;6169821;28;20046;-79
2023/05/11 20:01:34;;;;;;;5.45;3.25;;;13.60;99.90;;;;;;6150213;28;20048;-79
2023/05/11 20:04:37;;;;;;;6.90;3.60;;;13.80;99.90;;;;;;6147177;28;20493;-81
2023/05/11 20:07:39;;;;;;;5.85;3.80;;;13.70;99.90;;;;;;6176140;28;20047;-77
2023/05/11 20:10:41;;;;;;;5.93;3.70;;;13.70;99.90;;;;;;6176562;28;20459;-79
2023/05/11 20:13:45;;;;;;;6.57;3.60;;;13.60;99.90;;;;;;6184851;28;20133;-79
2023/05/11 20:16:47;;;;;;;4.55;3.00;;;13.60;99.90;;;;;;6183149;28;20062;-78
2023/05/11 20:19:51;;;;;;;6.80;3.67;;;13.80;99.90;;;;;;6181146;28;20055;-79
2023/05/11 20:22:53;;;;;;;4.72;3.08;;;13.90;99.90;;;;;;6178380;28;20062;-77
2023/05/11 20:25:54;;;;;;;6.15;3.25;;;13.90;99.90;;;;;;6177392;28;20054;-78
2023/05/11 20:28:56;;;;;;;4.30;3.10;;;13.90;99.90;;;;;;6177453;28;20051;-80
2023/05/11 20:31:58;;;;;;;4.35;3.10;;;13.90;99.90;;;;;;6174873;28;20054;-77
2023/05/11 20:35:02;;;;;;;5.63;3.60;;;14.00;99.90;;;;;;6176787;28;20051;-78
2023/05/11 20:38:04;;;;;;;5.85;3.30;;;14.00;99.90;;;;;;6175250;28;20536;-76
2023/05/11 20:41:06;;;;;;;6.03;4.00;;;14.00;99.90;;;;;;6173962;28;20518;-80
2023/05/11 20:44:12;;;;;;;5.40;3.92;;;13.80;99.90;;;;;;6175641;28;20043;-78
2023/05/11 20:47:14;;;;;;;5.75;3.95;;;13.50;99.90;;;;;;6175102;28;20047;-76
2023/05/11 20:50:17;;;;;;;7.65;4.68;;;13.50;99.90;;;;;;6175929;28;20057;-77
2023/05/11 20:53:19;;;;;;;5.82;4.30;;;13.30;99.90;;;;;;6176411;28;20054;-79
2023/05/11 20:56:21;;;;;;;7.45;4.90;;;13.50;99.90;;;;;;6168828;28;20043;-77
2023/05/11 20:59:23;;;;;;;7.78;4.40;;;13.60;99.90;;;;;;6151748;29;20051;-79
2023/05/11 21:02:25;;;;;;;6.93;4.47;;;13.40;99.90;;;;;;6161972;28;20054;-76
2023/05/11 21:05:29;;;;;;;6.72;4.55;;;13.40;99.90;;;;;;6173202;28;20051;-79
2023/05/11 21:08:31;;;;;;;6.30;4.60;;;13.60;99.90;;;;;;6151207;29;20047;-80
2023/05/11 21:11:32;;;;;;;7.57;4.60;;;13.70;99.90;;;;;;6151376;29;20047;-79
2023/05/11 21:14:34;;;;;;;5.85;4.50;;;13.60;99.90;;;;;;6167527;28;20046;-76
2023/05/11 21:17:36;;;;;;;8.07;4.40;;;13.10;99.90;;;;;;6174104;28;20055;-77
2023/05/11 21:20:39;;;;;;;5.70;4.20;;;13.40;99.90;;;;;;6174537;28;20061;-80
2023/05/11 21:23:41;;;;;;;7.40;4.82;;;13.00;99.90;;;;;;6175408;28;20072;-78
2023/05/11 21:26:44;;;;;;;5.85;4.40;;;13.30;99.90;;;;;;6174797;28;20054;-80
2023/05/11 21:29:47;;;;;;;4.30;3.40;;;13.50;99.90;;;;;;6175116;28;20055;-80
2023/05/11 21:32:49;;;;;;;5.57;3.63;;;13.60;99.90;;;;;;6172418;28;20427;-77
2023/05/11 21:35:52;;;;;;;6.40;3.35;;;13.60;99.90;;;;;;6156857;28;20047;-77
2023/05/11 21:38:54;;;;;;;6.47;4.25;;;13.70;99.90;;;;;;6174982;28;20051;-79
2023/05/11 21:41:56;;;;;;;5.60;3.55;;;13.50;99.90;;;;;;6164494;28;20065;-77
2023/05/11 21:44:58;;;;;;;7.22;3.97;;;13.60;99.90;;;;;;6176969;28;20848;-77
2023/05/11 21:48:01;;;;;;;5.95;3.70;;;13.60;99.90;;;;;;6177164;28;20047;-78
2023/05/11 21:51:05;;;;;;;4.82;3.60;;;13.70;99.90;;;;;;6176171;28;20535;-78
2023/05/11 21:54:08;;;;;;;6.35;4.28;;;13.70;99.90;;;;;;6181239;28;20078;-76
2023/05/11 21:57:10;;;;;;;6.30;3.88;;;13.80;99.90;;;;;;6181574;28;20046;-79
